sensor_id;sensor_type;location;lat;lon;timestamp;P1;durP1;ratioP1;P2;durP2;ratioP2
67012;SDS011;53926;47.406;19.188;2022-08-03T00:01:47;1.20;;;1.20;;
67012;SDS011;53926;47.406;19.188;2022-08-03T00:04:14;1.77;;;1.67;;
67012;SDS011;53926;47.406;19.188;2022-08-03T00:06:41;1.65;;;1.50;;
67012;SDS011;53926;47.406;19.188;2022-08-03T00:09:08;1.70;;;1.60;;
67012;SDS011;53926;47.406;19.188;2022-08-03T00:11:36;1.87;;;1.67;;
67012;SDS011;53926;47.406;19.188;2022-08-03T00:14:04;2.47;;;1.92;;
67012;SDS011;53926;47.406;19.188;2022-08-03T00:16:31;2.05;;;1.85;;
67012;SDS011;53926;47.406;19.188;2022-08-03T00:18:58;2.60;;;1.60;;
67012;SDS011;53926;47.406;19.188;2022-08-03T00:21:26;1.58;;;1.58;;
67012;SDS011;53926;47.406;19.188;2022-08-03T00:23:53;1.65;;;1.65;;
67012;SDS011;53926;47.406;19.188;2022-08-03T00:26:20;2.05;;;1.95;;
67012;SDS011;53926;47.406;19.188;2022-08-03T00:28:48;2.10;;;2.00;;
67012;SDS011;53926;47.406;19.188;2022-08-03T00:31:15;2.00;;;1.90;;
67012;SDS011;53926;47.406;19.188;2022-08-03T00:33:59;3.58;;;1.90;;
67012;SDS011;53926;47.406;19.188;2022-08-03T00:36:29;3.95;;;2.28;;
67012;SDS011;53926;47.406;19.188;2022-08-03T00:38:56;2.20;;;2.10;;
67012;SDS011;53926;47.406;19.188;2022-08-03T00:41:22;1.75;;;1.75;;
67012;SDS011;53926;47.406;19.188;2022-08-03T00:43:49;2.33;;;2.22;;
67012;SDS011;53926;47.406;19.188;2022-08-03T00:46:16;2.78;;;2.10;;
67012;SDS011;53926;47.406;19.188;2022-08-03T00:48:50;2.45;;;1.90;;
67012;SDS011;53926;47.406;19.188;2022-08-03T00:51:18;1.75;;;1.75;;
67012;SDS011;53926;47.406;19.188;2022-08-03T00:53:46;2.30;;;2.20;;
67012;SDS011;53926;47.406;19.188;2022-08-03T00:56:13;1.87;;;1.83;;
67012;SDS011;53926;47.406;19.188;2022-08-03T00:58:42;2.42;;;2.22;;
67012;SDS011;53926;47.406;19.188;2022-08-03T01:01:09;2.67;;;1.70;;
67012;SDS011;53926;47.406;19.188;2022-08-03T01:03:37;1.95;;;1.85;;
67012;SDS011;53926;47.406;19.188;2022-08-03T01:08:52;2.10;;;2.00;;
67012;SDS011;53926;47.406;19.188;2022-08-03T01:11:32;2.05;;;1.95;;
67012;SDS011;53926;47.406;19.188;2022-08-03T01:14:33;1.90;;;1.80;;
67012;SDS011;53926;47.406;19.188;2022-08-03T01:17:13;1.92;;;1.83;;
67012;SDS011;53926;47.406;19.188;2022-08-03T01:30:36;1.75;;;1.70;;
67012;SDS011;53926;47.406;19.188;2022-08-03T01:33:09;2.25;;;2.12;;
67012;SDS011;53926;47.406;19.188;2022-08-03T01:35:42;2.20;;;2.10;;
67012;SDS011;53926;47.406;19.188;2022-08-03T01:38:23;2.05;;;2.00;;
67012;SDS011;53926;47.406;19.188;2022-08-03T01:40:54;1.98;;;1.87;;
67012;SDS011;53926;47.406;19.188;2022-08-03T01:43:26;2.42;;;2.22;;
67012;SDS011;53926;47.406;19.188;2022-08-03T01:46:16;1.75;;;1.73;;
67012;SDS011;53926;47.406;19.188;2022-08-03T01:48:47;2.00;;;1.90;;
67012;SDS011;53926;47.406;19.188;2022-08-03T01:51:16;1.90;;;1.80;;
67012;SDS011;53926;47.406;19.188;2022-08-03T01:53:45;2.25;;;2.00;;
67012;SDS011;53926;47.406;19.188;2022-08-03T01:56:26;7.53;;;2.60;;
67012;SDS011;53926;47.406;19.188;2022-08-03T01:58:55;2.25;;;2.15;;
67012;SDS011;53926;47.406;19.188;2022-08-03T02:01:25;3.05;;;2.85;;
67012;SDS011;53926;47.406;19.188;2022-08-03T02:04:14;2.03;;;1.92;;
67012;SDS011;53926;47.406;19.188;2022-08-03T02:06:44;2.75;;;2.25;;
67012;SDS011;53926;47.406;19.188;2022-08-03T02:09:28;3.28;;;2.78;;
67012;SDS011;53926;47.406;19.188;2022-08-03T02:11:56;5.20;;;2.55;;
67012;SDS011;53926;47.406;19.188;2022-08-03T02:14:25;5.10;;;2.87;;
67012;SDS011;53926;47.406;19.188;2022-08-03T02:16:53;12.30;;;3.00;;
67012;SDS011;53926;47.406;19.188;2022-08-03T02:19:21;8.60;;;2.30;;
67012;SDS011;53926;47.406;19.188;2022-08-03T02:21:50;4.90;;;2.67;;
67012;SDS011;53926;47.406;19.188;2022-08-03T02:24:26;3.47;;;3.17;;
67012;SDS011;53926;47.406;19.188;2022-08-03T02:26:54;2.60;;;2.50;;
67012;SDS011;53926;47.406;19.188;2022-08-03T02:29:23;2.40;;;2.30;;
67012;SDS011;53926;47.406;19.188;2022-08-03T02:32:06;2.78;;;2.67;;
67012;SDS011;53926;47.406;19.188;2022-08-03T02:34:37;2.60;;;2.50;;
67012;SDS011;53926;47.406;19.188;2022-08-03T02:37:07;2.72;;;2.62;;
67012;SDS011;53926;47.406;19.188;2022-08-03T02:39:36;3.03;;;2.90;;
67012;SDS011;53926;47.406;19.188;2022-08-03T02:42:07;2.60;;;2.50;;
67012;SDS011;53926;47.406;19.188;2022-08-03T02:44:37;2.70;;;2.60;;
67012;SDS011;53926;47.406;19.188;2022-08-03T02:47:09;9.50;;;3.10;;
67012;SDS011;53926;47.406;19.188;2022-08-03T02:49:37;5.95;;;3.03;;
67012;SDS011;53926;47.406;19.188;2022-08-03T02:52:17;2.58;;;2.47;;
67012;SDS011;53926;47.406;19.188;2022-08-03T02:54:47;5.43;;;2.83;;
67012;SDS011;53926;47.406;19.188;2022-08-03T02:57:16;2.65;;;2.55;;
67012;SDS011;53926;47.406;19.188;2022-08-03T02:59:45;9.88;;;3.17;;
67012;SDS011;53926;47.406;19.188;2022-08-03T03:02:13;26.23;;;2.60;;
67012;SDS011;53926;47.406;19.188;2022-08-03T03:04:43;3.87;;;2.37;;
67012;SDS011;53926;47.406;19.188;2022-08-03T03:07:31;5.97;;;2.67;;
67012;SDS011;53926;47.406;19.188;2022-08-03T03:10:17;6.57;;;2.92;;
67012;SDS011;53926;47.406;19.188;2022-08-03T03:12:46;2.75;;;2.65;;
67012;SDS011;53926;47.406;19.188;2022-08-03T03:15:16;3.33;;;2.97;;
67012;SDS011;53926;47.406;19.188;2022-08-03T03:17:44;4.00;;;2.92;;
67012;SDS011;53926;47.406;19.188;2022-08-03T03:20:11;11.85;;;2.87;;
67012;SDS011;53926;47.406;19.188;2022-08-03T03:22:39;7.93;;;2.60;;
67012;SDS011;53926;47.406;19.188;2022-08-03T03:25:10;2.97;;;2.87;;
67012;SDS011;53926;47.406;19.188;2022-08-03T03:27:37;3.05;;;2.83;;
67012;SDS011;53926;47.406;19.188;2022-08-03T03:30:05;2.62;;;2.42;;
67012;SDS011;53926;47.406;19.188;2022-08-03T03:32:32;5.15;;;2.28;;
67012;SDS011;53926;47.406;19.188;2022-08-03T03:34:59;2.60;;;2.50;;
67012;SDS011;53926;47.406;19.188;2022-08-03T03:37:26;2.92;;;2.67;;
67012;SDS011;53926;47.406;19.188;2022-08-03T03:39:53;2.72;;;2.53;;
67012;SDS011;53926;47.406;19.188;2022-08-03T03:42:20;2.40;;;2.10;;
67012;SDS011;53926;47.406;19.188;2022-08-03T03:44:47;1.92;;;1.83;;
67012;SDS011;53926;47.406;19.188;2022-08-03T03:47:14;2.15;;;2.05;;
67012;SDS011;53926;47.406;19.188;2022-08-03T03:49:42;1.98;;;1.83;;
67012;SDS011;53926;47.406;19.188;2022-08-03T03:52:09;1.90;;;1.80;;
67012;SDS011;53926;47.406;19.188;2022-08-03T03:54:42;1.85;;;1.75;;
67012;SDS011;53926;47.406;19.188;2022-08-03T03:57:10;2.08;;;1.98;;
67012;SDS011;53926;47.406;19.188;2022-08-03T03:59:39;1.98;;;1.87;;
67012;SDS011;53926;47.406;19.188;2022-08-03T04:02:08;2.72;;;2.53;;
67012;SDS011;53926;47.406;19.188;2022-08-03T04:04:36;1.95;;;1.85;;
67012;SDS011;53926;47.406;19.188;2022-08-03T04:07:22;2.08;;;1.87;;
67012;SDS011;53926;47.406;19.188;2022-08-03T04:10:10;7.40;;;1.77;;
67012;SDS011;53926;47.406;19.188;2022-08-03T04:15:27;2.00;;;1.67;;
67012;SDS011;53926;47.406;19.188;2022-08-03T04:17:56;1.48;;;1.48;;
67012;SDS011;53926;47.406;19.188;2022-08-03T04:20:28;1.83;;;1.73;;
67012;SDS011;53926;47.406;19.188;2022-08-03T04:22:57;1.67;;;1.58;;
67012;SDS011;53926;47.406;19.188;2022-08-03T04:25:27;1.62;;;1.62;;
67012;SDS011;53926;47.406;19.188;2022-08-03T04:27:56;2.15;;;2.05;;
67012;SDS011;53926;47.406;19.188;2022-08-03T04:30:47;2.42;;;2.30;;
67012;SDS011;53926;47.406;19.188;2022-08-03T04:33:16;4.90;;;1.53;;
67012;SDS011;53926;47.406;19.188;2022-08-03T04:35:45;2.55;;;1.60;;
67012;SDS011;53926;47.406;19.188;2022-08-03T04:38:28;1.55;;;1.45;;
67012;SDS011;53926;47.406;19.188;2022-08-03T04:40:58;1.25;;;1.20;;
67012;SDS011;53926;47.406;19.188;2022-08-03T04:43:25;1.30;;;1.30;;
67012;SDS011;53926;47.406;19.188;2022-08-03T04:45:53;1.23;;;1.23;;
67012;SDS011;53926;47.406;19.188;2022-08-03T04:48:22;1.23;;;1.20;;
67012;SDS011;53926;47.406;19.188;2022-08-03T04:50:49;1.52;;;1.42;;
67012;SDS011;53926;47.406;19.188;2022-08-03T04:53:16;1.25;;;1.20;;
67012;SDS011;53926;47.406;19.188;2022-08-03T04:55:44;1.52;;;1.52;;
67012;SDS011;53926;47.406;19.188;2022-08-03T04:58:12;1.20;;;1.20;;
67012;SDS011;53926;47.406;19.188;2022-08-03T05:00:40;1.00;;;1.00;;
67012;SDS011;53926;47.406;19.188;2022-08-03T05:03:08;1.05;;;1.05;;
67012;SDS011;53926;47.406;19.188;2022-08-03T05:05:50;1.77;;;1.25;;
67012;SDS011;53926;47.406;19.188;2022-08-03T05:08:36;1.00;;;1.00;;
67012;SDS011;53926;47.406;19.188;2022-08-03T05:11:13;0.90;;;0.90;;
67012;SDS011;53926;47.406;19.188;2022-08-03T05:13:40;1.17;;;1.00;;
67012;SDS011;53926;47.406;19.188;2022-08-03T05:16:07;0.82;;;0.82;;
67012;SDS011;53926;47.406;19.188;2022-08-03T05:18:34;0.95;;;0.80;;
67012;SDS011;53926;47.406;19.188;2022-08-03T05:21:01;1.20;;;1.20;;
67012;SDS011;53926;47.406;19.188;2022-08-03T05:23:27;0.90;;;0.90;;
67012;SDS011;53926;47.406;19.188;2022-08-03T05:25:54;0.98;;;0.98;;
67012;SDS011;53926;47.406;19.188;2022-08-03T05:28:21;1.15;;;1.15;;
67012;SDS011;53926;47.406;19.188;2022-08-03T05:30:48;1.00;;;1.00;;
67012;SDS011;53926;47.406;19.188;2022-08-03T05:33:15;1.20;;;1.17;;
67012;SDS011;53926;47.406;19.188;2022-08-03T05:35:41;3.37;;;0.93;;
67012;SDS011;53926;47.406;19.188;2022-08-03T05:38:28;1.08;;;1.08;;
67012;SDS011;53926;47.406;19.188;2022-08-03T05:41:00;0.93;;;0.93;;
67012;SDS011;53926;47.406;19.188;2022-08-03T05:43:48;0.90;;;0.90;;
67012;SDS011;53926;47.406;19.188;2022-08-03T05:46:14;1.12;;;1.12;;
67012;SDS011;53926;47.406;19.188;2022-08-03T05:48:41;0.70;;;0.70;;
67012;SDS011;53926;47.406;19.188;2022-08-03T05:51:08;1.00;;;1.00;;
67012;SDS011;53926;47.406;19.188;2022-08-03T05:53:37;1.05;;;1.05;;
67012;SDS011;53926;47.406;19.188;2022-08-03T05:56:05;1.08;;;1.08;;
67012;SDS011;53926;47.406;19.188;2022-08-03T05:58:40;1.00;;;1.00;;
67012;SDS011;53926;47.406;19.188;2022-08-03T06:01:07;1.00;;;1.00;;
67012;SDS011;53926;47.406;19.188;2022-08-03T06:03:34;0.95;;;0.95;;
67012;SDS011;53926;47.406;19.188;2022-08-03T06:06:00;1.05;;;1.05;;
67012;SDS011;53926;47.406;19.188;2022-08-03T06:08:27;1.00;;;1.00;;
67012;SDS011;53926;47.406;19.188;2022-08-03T06:10:54;1.00;;;1.00;;
67012;SDS011;53926;47.406;19.188;2022-08-03T06:13:22;1.05;;;1.05;;
67012;SDS011;53926;47.406;19.188;2022-08-03T06:15:48;1.10;;;1.10;;
67012;SDS011;53926;47.406;19.188;2022-08-03T06:18:15;1.00;;;1.00;;
67012;SDS011;53926;47.406;19.188;2022-08-03T06:20:42;1.05;;;1.05;;
67012;SDS011;53926;47.406;19.188;2022-08-03T06:23:09;1.10;;;1.10;;
67012;SDS011;53926;47.406;19.188;2022-08-03T06:25:42;1.30;;;1.20;;
67012;SDS011;53926;47.406;19.188;2022-08-03T06:28:09;1.00;;;1.00;;
67012;SDS011;53926;47.406;19.188;2022-08-03T06:30:57;1.08;;;1.08;;
67012;SDS011;53926;47.406;19.188;2022-08-03T06:33:24;1.15;;;1.15;;
67012;SDS011;53926;47.406;19.188;2022-08-03T06:36:11;1.40;;;1.40;;
67012;SDS011;53926;47.406;19.188;2022-08-03T06:38:38;1.27;;;1.27;;
67012;SDS011;53926;47.406;19.188;2022-08-03T06:41:04;1.15;;;1.15;;
67012;SDS011;53926;47.406;19.188;2022-08-03T06:43:31;1.30;;;1.30;;
67012;SDS011;53926;47.406;19.188;2022-08-03T06:46:03;1.20;;;1.20;;
67012;SDS011;53926;47.406;19.188;2022-08-03T06:48:30;1.10;;;1.10;;
67012;SDS011;53926;47.406;19.188;2022-08-03T06:50:57;1.20;;;1.20;;
67012;SDS011;53926;47.406;19.188;2022-08-03T06:53:24;1.20;;;1.20;;
67012;SDS011;53926;47.406;19.188;2022-08-03T06:55:51;1.12;;;1.12;;
67012;SDS011;53926;47.406;19.188;2022-08-03T06:58:20;1.15;;;1.15;;
67012;SDS011;53926;47.406;19.188;2022-08-03T07:00:47;1.20;;;1.20;;
67012;SDS011;53926;47.406;19.188;2022-08-03T07:03:14;1.55;;;1.30;;
67012;SDS011;53926;47.406;19.188;2022-08-03T07:05:41;1.17;;;1.10;;
67012;SDS011;53926;47.406;19.188;2022-08-03T07:08:09;1.27;;;1.20;;
67012;SDS011;53926;47.406;19.188;2022-08-03T07:10:35;1.35;;;1.10;;
67012;SDS011;53926;47.406;19.188;2022-08-03T07:13:02;1.20;;;1.20;;
67012;SDS011;53926;47.406;19.188;2022-08-03T07:15:29;1.17;;;1.17;;
67012;SDS011;53926;47.406;19.188;2022-08-03T07:18:16;2.45;;;1.40;;
67012;SDS011;53926;47.406;19.188;2022-08-03T07:20:54;1.15;;;1.15;;
67012;SDS011;53926;47.406;19.188;2022-08-03T07:23:20;1.42;;;1.42;;
67012;SDS011;53926;47.406;19.188;2022-08-03T07:25:47;1.30;;;1.30;;
67012;SDS011;53926;47.406;19.188;2022-08-03T07:28:14;1.15;;;1.05;;
67012;SDS011;53926;47.406;19.188;2022-08-03T07:30:40;1.40;;;1.40;;
67012;SDS011;53926;47.406;19.188;2022-08-03T07:33:07;1.15;;;1.15;;
67012;SDS011;53926;47.406;19.188;2022-08-03T07:35:34;1.30;;;1.30;;
67012;SDS011;53926;47.406;19.188;2022-08-03T07:38:00;1.33;;;1.33;;
67012;SDS011;53926;47.406;19.188;2022-08-03T07:40:27;1.12;;;1.12;;
67012;SDS011;53926;47.406;19.188;2022-08-03T07:42:57;1.37;;;1.37;;
67012;SDS011;53926;47.406;19.188;2022-08-03T07:45:24;1.10;;;1.10;;
67012;SDS011;53926;47.406;19.188;2022-08-03T07:47:52;1.20;;;1.20;;
67012;SDS011;53926;47.406;19.188;2022-08-03T07:50:20;1.50;;;1.50;;
67012;SDS011;53926;47.406;19.188;2022-08-03T07:52:48;1.30;;;1.30;;
67012;SDS011;53926;47.406;19.188;2022-08-03T07:55:16;1.12;;;1.12;;
67012;SDS011;53926;47.406;19.188;2022-08-03T07:57:45;1.45;;;1.45;;
67012;SDS011;53926;47.406;19.188;2022-08-03T08:00:13;1.20;;;1.20;;
67012;SDS011;53926;47.406;19.188;2022-08-03T08:02:42;1.05;;;1.05;;
67012;SDS011;53926;47.406;19.188;2022-08-03T08:05:11;1.30;;;1.30;;
67012;SDS011;53926;47.406;19.188;2022-08-03T08:07:38;1.35;;;1.35;;
67012;SDS011;53926;47.406;19.188;2022-08-03T08:10:05;1.15;;;1.15;;
67012;SDS011;53926;47.406;19.188;2022-08-03T08:12:33;1.45;;;1.45;;
67012;SDS011;53926;47.406;19.188;2022-08-03T08:15:00;3.75;;;1.40;;
67012;SDS011;53926;47.406;19.188;2022-08-03T08:17:27;1.37;;;1.37;;
67012;SDS011;53926;47.406;19.188;2022-08-03T08:19:54;1.05;;;1.05;;
67012;SDS011;53926;47.406;19.188;2022-08-03T08:22:20;1.55;;;1.33;;
67012;SDS011;53926;47.406;19.188;2022-08-03T08:24:55;1.20;;;1.20;;
67012;SDS011;53926;47.406;19.188;2022-08-03T08:27:22;1.37;;;1.37;;
67012;SDS011;53926;47.406;19.188;2022-08-03T08:29:48;1.35;;;1.25;;
67012;SDS011;53926;47.406;19.188;2022-08-03T08:32:21;1.50;;;1.40;;
67012;SDS011;53926;47.406;19.188;2022-08-03T08:34:48;1.10;;;1.10;;
67012;SDS011;53926;47.406;19.188;2022-08-03T08:37:15;1.37;;;1.27;;
67012;SDS011;53926;47.406;19.188;2022-08-03T08:39:41;1.50;;;1.40;;
67012;SDS011;53926;47.406;19.188;2022-08-03T08:42:08;1.08;;;1.08;;
67012;SDS011;53926;47.406;19.188;2022-08-03T08:44:37;1.20;;;1.20;;
67012;SDS011;53926;47.406;19.188;2022-08-03T08:47:03;1.40;;;1.40;;
67012;SDS011;53926;47.406;19.188;2022-08-03T08:49:34;1.25;;;1.25;;
67012;SDS011;53926;47.406;19.188;2022-08-03T08:52:02;1.00;;;1.00;;
67012;SDS011;53926;47.406;19.188;2022-08-03T08:55:01;1.15;;;1.15;;
67012;SDS011;53926;47.406;19.188;2022-08-03T08:57:37;1.23;;;1.23;;
67012;SDS011;53926;47.406;19.188;2022-08-03T09:02:43;1.17;;;1.17;;
67012;SDS011;53926;47.406;19.188;2022-08-03T09:05:11;1.10;;;1.08;;
67012;SDS011;53926;47.406;19.188;2022-08-03T09:07:40;1.27;;;1.17;;
67012;SDS011;53926;47.406;19.188;2022-08-03T09:10:09;1.23;;;1.12;;
67012;SDS011;53926;47.406;19.188;2022-08-03T09:12:42;1.05;;;1.05;;
67012;SDS011;53926;47.406;19.188;2022-08-03T09:17:51;1.20;;;1.20;;
67012;SDS011;53926;47.406;19.188;2022-08-03T09:20:20;1.20;;;1.20;;
67012;SDS011;53926;47.406;19.188;2022-08-03T09:25:25;1.40;;;1.30;;
67012;SDS011;53926;47.406;19.188;2022-08-03T09:28:07;1.02;;;1.02;;
67012;SDS011;53926;47.406;19.188;2022-08-03T09:30:36;1.25;;;1.25;;
67012;SDS011;53926;47.406;19.188;2022-08-03T09:33:06;1.10;;;1.10;;
67012;SDS011;53926;47.406;19.188;2022-08-03T09:36:07;0.90;;;0.90;;
67012;SDS011;53926;47.406;19.188;2022-08-03T09:38:27;1.00;;;1.00;;
67012;SDS011;53926;47.406;19.188;2022-08-03T09:40:54;0.80;;;0.80;;
67012;SDS011;53926;47.406;19.188;2022-08-03T09:43:26;0.82;;;0.82;;
67012;SDS011;53926;47.406;19.188;2022-08-03T09:46:03;1.12;;;1.12;;
67012;SDS011;53926;47.406;19.188;2022-08-03T09:48:30;1.00;;;1.00;;
67012;SDS011;53926;47.406;19.188;2022-08-03T09:51:01;1.08;;;1.08;;
67012;SDS011;53926;47.406;19.188;2022-08-03T09:53:51;0.95;;;0.95;;
67012;SDS011;53926;47.406;19.188;2022-08-03T09:56:36;1.30;;;1.12;;
67012;SDS011;53926;47.406;19.188;2022-08-03T09:59:07;0.95;;;0.95;;
67012;SDS011;53926;47.406;19.188;2022-08-03T10:01:35;1.65;;;1.25;;
67012;SDS011;53926;47.406;19.188;2022-08-03T10:04:02;1.10;;;1.10;;
67012;SDS011;53926;47.406;19.188;2022-08-03T10:06:30;2.00;;;1.17;;
67012;SDS011;53926;47.406;19.188;2022-08-03T10:09:12;0.90;;;0.90;;
67012;SDS011;53926;47.406;19.188;2022-08-03T10:11:41;1.10;;;1.10;;
67012;SDS011;53926;47.406;19.188;2022-08-03T10:14:10;1.02;;;1.02;;
67012;SDS011;53926;47.406;19.188;2022-08-03T10:16:44;1.37;;;1.37;;
67012;SDS011;53926;47.406;19.188;2022-08-03T10:19:12;0.98;;;0.98;;
67012;SDS011;53926;47.406;19.188;2022-08-03T10:21:41;1.20;;;1.20;;
67012;SDS011;53926;47.406;19.188;2022-08-03T10:24:14;1.50;;;1.50;;
67012;SDS011;53926;47.406;19.188;2022-08-03T10:26:43;0.90;;;0.90;;
67012;SDS011;53926;47.406;19.188;2022-08-03T10:29:21;1.00;;;1.00;;
67012;SDS011;53926;47.406;19.188;2022-08-03T10:31:53;0.90;;;0.90;;
67012;SDS011;53926;47.406;19.188;2022-08-03T10:34:25;1.17;;;1.17;;
67012;SDS011;53926;47.406;19.188;2022-08-03T10:36:55;0.90;;;0.90;;
67012;SDS011;53926;47.406;19.188;2022-08-03T10:39:26;1.62;;;1.30;;
67012;SDS011;53926;47.406;19.188;2022-08-03T10:41:54;1.10;;;1.10;;
67012;SDS011;53926;47.406;19.188;2022-08-03T10:44:29;1.08;;;1.08;;
67012;SDS011;53926;47.406;19.188;2022-08-03T10:47:02;1.08;;;1.08;;
67012;SDS011;53926;47.406;19.188;2022-08-03T10:49:30;1.02;;;1.02;;
67012;SDS011;53926;47.406;19.188;2022-08-03T10:52:00;1.17;;;1.17;;
67012;SDS011;53926;47.406;19.188;2022-08-03T10:54:39;0.88;;;0.88;;
67012;SDS011;53926;47.406;19.188;2022-08-03T11:00:21;0.82;;;0.82;;
67012;SDS011;53926;47.406;19.188;2022-08-03T11:03:08;0.80;;;0.80;;
67012;SDS011;53926;47.406;19.188;2022-08-03T11:05:40;0.77;;;0.77;;
67012;SDS011;53926;47.406;19.188;2022-08-03T11:10:44;1.20;;;1.10;;
67012;SDS011;53926;47.406;19.188;2022-08-03T11:13:16;0.88;;;0.88;;
67012;SDS011;53926;47.406;19.188;2022-08-03T11:15:48;0.90;;;0.90;;
67012;SDS011;53926;47.406;19.188;2022-08-03T11:18:17;1.00;;;1.00;;
67012;SDS011;53926;47.406;19.188;2022-08-03T11:20:51;0.95;;;0.95;;
67012;SDS011;53926;47.406;19.188;2022-08-03T11:23:42;0.90;;;0.90;;
67012;SDS011;53926;47.406;19.188;2022-08-03T11:26:28;0.82;;;0.82;;
67012;SDS011;53926;47.406;19.188;2022-08-03T11:29:17;1.50;;;1.20;;
67012;SDS011;53926;47.406;19.188;2022-08-03T11:31:56;1.00;;;1.00;;
67012;SDS011;53926;47.406;19.188;2022-08-03T11:34:23;1.00;;;1.00;;
67012;SDS011;53926;47.406;19.188;2022-08-03T11:39:53;1.02;;;1.02;;
67012;SDS011;53926;47.406;19.188;2022-08-03T11:44:49;0.80;;;0.80;;
67012;SDS011;53926;47.406;19.188;2022-08-03T11:47:16;0.80;;;0.80;;
67012;SDS011;53926;47.406;19.188;2022-08-03T11:49:45;0.95;;;0.95;;
67012;SDS011;53926;47.406;19.188;2022-08-03T11:52:13;1.00;;;1.00;;
67012;SDS011;53926;47.406;19.188;2022-08-03T11:54:41;1.02;;;1.02;;
67012;SDS011;53926;47.406;19.188;2022-08-03T11:57:08;0.90;;;0.90;;
67012;SDS011;53926;47.406;19.188;2022-08-03T11:59:35;0.88;;;0.88;;
67012;SDS011;53926;47.406;19.188;2022-08-03T12:02:10;0.80;;;0.80;;
67012;SDS011;53926;47.406;19.188;2022-08-03T12:07:19;1.10;;;1.10;;
67012;SDS011;53926;47.406;19.188;2022-08-03T12:10:12;0.77;;;0.77;;
67012;SDS011;53926;47.406;19.188;2022-08-03T12:12:40;0.80;;;0.80;;
67012;SDS011;53926;47.406;19.188;2022-08-03T12:15:11;0.85;;;0.85;;
67012;SDS011;53926;47.406;19.188;2022-08-03T12:17:39;0.68;;;0.68;;
67012;SDS011;53926;47.406;19.188;2022-08-03T12:20:07;0.95;;;0.95;;
67012;SDS011;53926;47.406;19.188;2022-08-03T12:22:38;0.80;;;0.80;;
67012;SDS011;53926;47.406;19.188;2022-08-03T12:25:06;3.90;;;0.95;;
67012;SDS011;53926;47.406;19.188;2022-08-03T12:27:34;0.80;;;0.80;;
67012;SDS011;53926;47.406;19.188;2022-08-03T12:30:01;0.80;;;0.80;;
67012;SDS011;53926;47.406;19.188;2022-08-03T12:32:29;0.85;;;0.85;;
67012;SDS011;53926;47.406;19.188;2022-08-03T12:34:57;0.70;;;0.70;;
67012;SDS011;53926;47.406;19.188;2022-08-03T12:37:27;0.90;;;0.90;;
67012;SDS011;53926;47.406;19.188;2022-08-03T12:39:55;1.10;;;1.00;;
67012;SDS011;53926;47.406;19.188;2022-08-03T12:42:34;0.70;;;0.70;;
67012;SDS011;53926;47.406;19.188;2022-08-03T12:45:21;0.70;;;0.70;;
67012;SDS011;53926;47.406;19.188;2022-08-03T12:47:53;0.77;;;0.77;;
67012;SDS011;53926;47.406;19.188;2022-08-03T12:50:31;1.20;;;1.20;;
67012;SDS011;53926;47.406;19.188;2022-08-03T12:53:00;0.70;;;0.70;;
67012;SDS011;53926;47.406;19.188;2022-08-03T12:55:35;0.88;;;0.88;;
67012;SDS011;53926;47.406;19.188;2022-08-03T12:58:31;0.80;;;0.80;;
67012;SDS011;53926;47.406;19.188;2022-08-03T13:01:03;1.30;;;1.20;;
67012;SDS011;53926;47.406;19.188;2022-08-03T13:03:42;2.05;;;0.80;;
67012;SDS011;53926;47.406;19.188;2022-08-03T13:06:22;0.73;;;0.73;;
67012;SDS011;53926;47.406;19.188;2022-08-03T13:09:03;0.80;;;0.80;;
67012;SDS011;53926;47.406;19.188;2022-08-03T13:11:31;0.90;;;0.90;;
67012;SDS011;53926;47.406;19.188;2022-08-03T13:14:17;1.20;;;1.10;;
67012;SDS011;53926;47.406;19.188;2022-08-03T13:16:45;0.80;;;0.80;;
67012;SDS011;53926;47.406;19.188;2022-08-03T13:19:13;0.60;;;0.60;;
67012;SDS011;53926;47.406;19.188;2022-08-03T13:21:41;0.70;;;0.70;;
67012;SDS011;53926;47.406;19.188;2022-08-03T13:24:28;4.78;;;1.12;;
67012;SDS011;53926;47.406;19.188;2022-08-03T13:26:57;0.70;;;0.70;;
67012;SDS011;53926;47.406;19.188;2022-08-03T13:29:24;0.80;;;0.80;;
67012;SDS011;53926;47.406;19.188;2022-08-03T13:31:50;0.68;;;0.68;;
67012;SDS011;53926;47.406;19.188;2022-08-03T13:34:17;0.90;;;0.90;;
67012;SDS011;53926;47.406;19.188;2022-08-03T13:36:48;0.85;;;0.85;;
67012;SDS011;53926;47.406;19.188;2022-08-03T13:39:34;0.70;;;0.70;;
67012;SDS011;53926;47.406;19.188;2022-08-03T13:42:21;0.77;;;0.77;;
67012;SDS011;53926;47.406;19.188;2022-08-03T13:44:48;0.80;;;0.80;;
67012;SDS011;53926;47.406;19.188;2022-08-03T13:47:14;0.93;;;0.93;;
67012;SDS011;53926;47.406;19.188;2022-08-03T13:49:41;2.03;;;1.10;;
67012;SDS011;53926;47.406;19.188;2022-08-03T13:52:27;0.95;;;0.95;;
67012;SDS011;53926;47.406;19.188;2022-08-03T13:55:04;0.70;;;0.70;;
67012;SDS011;53926;47.406;19.188;2022-08-03T13:57:32;0.60;;;0.60;;
67012;SDS011;53926;47.406;19.188;2022-08-03T14:00:20;0.80;;;0.80;;
67012;SDS011;53926;47.406;19.188;2022-08-03T14:02:58;0.77;;;0.77;;
67012;SDS011;53926;47.406;19.188;2022-08-03T14:05:38;0.85;;;0.85;;
67012;SDS011;53926;47.406;19.188;2022-08-03T14:08:05;1.08;;;0.82;;
67012;SDS011;53926;47.406;19.188;2022-08-03T14:10:33;0.80;;;0.80;;
67012;SDS011;53926;47.406;19.188;2022-08-03T14:13:04;1.10;;;1.00;;
67012;SDS011;53926;47.406;19.188;2022-08-03T14:15:32;0.73;;;0.73;;
67012;SDS011;53926;47.406;19.188;2022-08-03T14:18:04;0.70;;;0.70;;
67012;SDS011;53926;47.406;19.188;2022-08-03T14:20:31;0.85;;;0.85;;
67012;SDS011;53926;47.406;19.188;2022-08-03T14:23:15;1.20;;;1.10;;
67012;SDS011;53926;47.406;19.188;2022-08-03T14:25:42;1.00;;;1.00;;
67012;SDS011;53926;47.406;19.188;2022-08-03T14:28:21;0.95;;;0.95;;
67012;SDS011;53926;47.406;19.188;2022-08-03T14:30:53;0.85;;;0.85;;
67012;SDS011;53926;47.406;19.188;2022-08-03T14:33:21;0.82;;;0.82;;
67012;SDS011;53926;47.406;19.188;2022-08-03T14:35:48;1.37;;;0.95;;
67012;SDS011;53926;47.406;19.188;2022-08-03T14:38:16;0.82;;;0.82;;
67012;SDS011;53926;47.406;19.188;2022-08-03T14:40:43;0.90;;;0.90;;
67012;SDS011;53926;47.406;19.188;2022-08-03T14:43:10;1.00;;;0.88;;
67012;SDS011;53926;47.406;19.188;2022-08-03T14:45:38;0.70;;;0.70;;
67012;SDS011;53926;47.406;19.188;2022-08-03T14:48:05;1.08;;;1.08;;
67012;SDS011;53926;47.406;19.188;2022-08-03T14:50:52;0.90;;;0.90;;
67012;SDS011;53926;47.406;19.188;2022-08-03T14:53:20;0.73;;;0.73;;
67012;SDS011;53926;47.406;19.188;2022-08-03T14:55:47;0.73;;;0.73;;
67012;SDS011;53926;47.406;19.188;2022-08-03T14:58:19;0.65;;;0.65;;
67012;SDS011;53926;47.406;19.188;2022-08-03T15:00:48;0.82;;;0.82;;
67012;SDS011;53926;47.406;19.188;2022-08-03T15:03:16;0.60;;;0.60;;
67012;SDS011;53926;47.406;19.188;2022-08-03T15:05:53;0.75;;;0.75;;
67012;SDS011;53926;47.406;19.188;2022-08-03T15:08:21;0.88;;;0.88;;
67012;SDS011;53926;47.406;19.188;2022-08-03T15:10:49;0.70;;;0.70;;
67012;SDS011;53926;47.406;19.188;2022-08-03T15:13:16;0.60;;;0.60;;
67012;SDS011;53926;47.406;19.188;2022-08-03T15:15:43;1.37;;;1.08;;
67012;SDS011;53926;47.406;19.188;2022-08-03T15:18:11;0.50;;;0.50;;
67012;SDS011;53926;47.406;19.188;2022-08-03T15:20:37;0.70;;;0.70;;
67012;SDS011;53926;47.406;19.188;2022-08-03T15:23:11;1.40;;;1.05;;
67012;SDS011;53926;47.406;19.188;2022-08-03T15:25:42;0.60;;;0.60;;
67012;SDS011;53926;47.406;19.188;2022-08-03T15:28:30;0.70;;;0.70;;
67012;SDS011;53926;47.406;19.188;2022-08-03T15:30:57;1.10;;;0.60;;
67012;SDS011;53926;47.406;19.188;2022-08-03T15:33:24;0.70;;;0.70;;
67012;SDS011;53926;47.406;19.188;2022-08-03T15:35:50;0.80;;;0.80;;